Time;durP1;ratioP1;P1;durP2;ratioP2;P2;SDS_P1;SDS_P2;PMS_P1;PMS_P2;Temp;Humidity;BMP_temperature;BMP_pressure;BME280_temperature;BME280_humidity;BME280_pressure;Samples;Min_cycle;Max_cycle;Signal;HPM_P1;HPM_P2
2023/10/25 00:00:10;;;;;;;5.60;2.87;;;;;;;11.19;100.00;95353.91;5024932;28;105665;-78
2023/10/25 00:02:38;;;;;;;2.10;2.00;;;;;;;11.19;100.00;95348.56;5012214;28;101977;-80
2023/10/25 00:05:05;;;;;;;4.20;3.80;;;;;;;11.20;100.00;95355.47;5008167;28;105655;-80
2023/10/25 00:07:32;;;;;;;3.67;3.00;;;;;;;11.23;100.00;95354.94;5009995;28;101964;-80
2023/10/25 00:10:00;;;;;;;3.77;3.33;;;;;;;11.21;100.00;95349.09;5008675;28;105201;-81
2023/10/25 00:12:27;;;;;;;3.93;3.63;;;;;;;11.25;100.00;95355.44;5009214;28;102813;-80
2023/10/25 00:14:54;;;;;;;4.27;3.87;;;;;;;11.24;100.00;95349.31;5008754;28;101888;-82
2023/10/25 00:17:23;;;;;;;4.57;3.80;;;;;;;11.28;100.00;95344.25;5008682;28;105728;-77
2023/10/25 00:19:51;;;;;;;3.23;2.90;;;;;;;11.28;100.00;95352.25;5024652;28;105687;-77
2023/10/25 00:22:17;;;;;;;4.43;3.67;;;;;;;11.28;100.00;95346.91;5025328;28;101981;-77
2023/10/25 00:24:44;;;;;;;5.03;3.67;;;;;;;11.30;100.00;95355.41;5011302;28;105046;-77
2023/10/25 00:27:11;;;;;;;2.80;2.60;;;;;;;11.28;100.00;95349.56;5008596;28;102185;-81
2023/10/25 00:29:38;;;;;;;3.50;3.20;;;;;;;11.30;100.00;95360.72;5008371;28;104864;-80
2023/10/25 00:32:06;;;;;;;3.10;2.80;;;;;;;11.28;100.00;95357.56;5007624;28;105084;-80
2023/10/25 00:34:34;;;;;;;3.10;2.80;;;;;;;11.26;100.00;95355.16;5008392;28;102021;-82
2023/10/25 00:37:01;;;;;;;2.47;2.37;;;;;;;11.25;100.00;95355.44;5010322;28;105610;-82
2023/10/25 00:39:29;;;;;;;2.20;2.00;;;;;;;11.23;100.00;95355.72;5011320;28;105783;-82
2023/10/25 00:41:56;;;;;;;2.70;2.50;;;;;;;11.24;100.00;95362.63;5011774;28;101909;-82
2023/10/25 00:44:23;;;;;;;2.10;2.00;;;;;;;11.21;100.00;95354.41;5011633;28;105227;-82
2023/10/25 00:46:50;;;;;;;2.63;2.43;;;;;;;11.24;100.00;95353.84;5014330;28;104550;-80
2023/10/25 00:49:18;;;;;;;2.23;2.13;;;;;;;11.24;100.00;95361.84;5011796;28;105017;-86
2023/10/25 00:51:48;;;;;;;1.97;1.87;;;;;;;11.22;100.00;95364.78;5028154;28;105624;-85
2023/10/25 00:54:16;;;;;;;2.00;1.90;;;;;;;11.13;100.00;95358.44;5011637;28;102001;-81
2023/10/25 00:56:43;;;;;;;2.30;2.10;;;;;;;11.17;100.00;95358.72;5011144;28;105816;-81
2023/10/25 00:59:13;;;;;;;4.67;3.60;;;;;;;11.16;100.00;95359.75;5011036;28;104176;-82
2023/10/25 01:01:42;;;;;;;3.03;2.80;;;;;;;11.18;100.00;95365.63;5028382;28;101946;-83
2023/10/25 01:04:09;;;;;;;2.77;2.57;;;;;;;11.15;100.00;95361.66;5011488;28;105315;-84
2023/10/25 01:06:36;;;;;;;2.77;2.57;;;;;;;11.17;100.00;95361.38;5010945;28;105317;-85
2023/10/25 01:09:05;;;;;;;2.80;2.60;;;;;;;11.16;100.00;95363.22;5014584;28;102016;-86
2023/10/25 01:11:33;;;;;;;2.70;2.50;;;;;;;11.18;100.00;95368.28;5010861;28;105812;-85
2023/10/25 01:14:01;;;;;;;2.93;2.67;;;;;;;11.19;100.00;95359.22;5011278;28;101901;-85
2023/10/25 01:16:28;;;;;;;3.30;2.80;;;;;;;11.19;100.00;95361.88;5011333;28;105772;-79
2023/10/25 01:18:55;;;;;;;2.90;2.70;;;;;;;11.18;100.00;95362.97;5012032;28;102773;-80
2023/10/25 01:21:22;;;;;;;3.20;3.00;;;;;;;11.17;100.00;95350.72;5012606;28;101994;-80
2023/10/25 01:23:53;;;;;;;2.97;2.70;;;;;;;11.16;100.00;95349.94;5012807;28;102647;-80
2023/10/25 01:26:20;;;;;;;3.30;3.10;;;;;;;11.20;100.00;95355.47;5010493;28;106297;-80
2023/10/25 01:28:46;;;;;;;2.90;2.70;;;;;;;11.18;100.00;95350.44;5027408;28;102007;-80
2023/10/25 01:31:13;;;;;;;3.40;2.97;;;;;;;11.16;100.00;95349.94;5030569;28;105252;-80
2023/10/25 01:33:40;;;;;;;2.53;2.33;;;;;;;11.06;100.00;95350.00;5027913;28;102337;-80
2023/10/25 01:36:07;;;;;;;4.80;4.30;;;;;;;11.11;100.00;95351.81;5011136;28;105380;-80
2023/10/25 01:38:35;;;;;;;3.87;3.57;;;;;;;11.06;100.00;95354.53;5010294;28;104274;-80
2023/10/25 01:41:03;;;;;;;4.00;3.70;;;;;;;11.02;100.00;95359.59;5010682;28;102493;-80
2023/10/25 01:43:30;;;;;;;5.43;5.00;;;;;;;10.94;100.00;95364.72;5010789;28;102646;-80
2023/10/25 01:45:57;;;;;;;4.67;4.30;;;;;;;10.93;100.00;95371.13;5010321;28;105718;-80
2023/10/25 01:48:24;;;;;;;4.90;4.50;;;;;;;10.89;100.00;95367.41;5009755;28;102084;-80
2023/10/25 01:50:53;;;;;;;5.40;4.90;;;;;;;10.92;100.00;95364.22;5014877;28;102811;-80
2023/10/25 01:53:20;;;;;;;5.53;5.03;;;;;;;10.94;100.00;95368.19;5010682;28;101986;-80
2023/10/25 01:55:48;;;;;;;6.47;5.90;;;;;;;10.94;100.00;95372.69;5010222;28;104874;-80
2023/10/25 01:58:17;;;;;;;6.67;5.83;;;;;;;10.95;100.00;95372.44;5009875;28;105552;-80
2023/10/25 02:00:44;;;;;;;6.13;5.63;;;;;;;11.00;100.00;95371.59;5027342;28;101900;-80
2023/10/25 02:03:11;;;;;;;5.60;5.20;;;;;;;11.02;100.00;95372.13;5010727;28;105331;-80
2023/10/25 02:05:37;;;;;;;7.30;6.60;;;;;;;11.08;100.00;95371.00;5009606;28;105690;-80
2023/10/25 02:08:05;;;;;;;6.77;6.27;;;;;;;11.10;100.00;95367.00;5010484;28;102144;-80
2023/10/25 02:10:33;;;;;;;5.77;5.27;;;;;;;11.13;100.00;95370.97;5026902;28;105996;-80
2023/10/25 02:13:00;;;;;;;6.20;5.70;;;;;;;11.13;100.00;95370.97;5013075;28;105264;-80
2023/10/25 02:15:29;;;;;;;6.27;5.77;;;;;;;11.15;100.00;95368.81;5010521;28;104924;-80
2023/10/25 02:17:56;;;;;;;6.00;5.40;;;;;;;11.11;100.00;95367.78;5009564;28;104353;-80
2023/10/25 02:20:23;;;;;;;6.40;5.80;;;;;;;11.06;100.00;95365.19;5010382;28;101854;-80
2023/10/25 02:22:50;;;;;;;6.23;5.73;;;;;;;11.02;100.00;95364.16;5010222;28;105202;-80
2023/10/25 02:25:17;;;;;;;5.87;5.27;;;;;;;10.98;100.00;95371.09;5009529;28;106054;-80
2023/10/25 02:27:44;;;;;;;5.50;5.00;;;;;;;10.96;100.00;95376.69;5010325;28;101860;-79
2023/10/25 02:30:11;;;;;;;7.70;4.30;;;;;;;10.92;100.00;95377.50;5026702;28;105061;-79
2023/10/25 02:32:40;;;;;;;4.50;4.20;;;;;;;10.91;100.00;95382.03;5009571;28;105229;-79
2023/10/25 02:35:07;;;;;;;3.10;2.90;;;;;;;10.85;100.00;95369.06;5013416;28;101951;-78
2023/10/25 02:37:34;;;;;;;3.07;2.77;;;;;;;10.82;100.00;95374.91;5026185;28;106133;-78
2023/10/25 02:40:01;;;;;;;1.90;1.80;;;;;;;10.73;100.00;95365.91;5010013;28;101918;-78
2023/10/25 02:42:28;;;;;;;1.70;1.60;;;;;;;10.68;100.00;95363.31;5009948;28;104957;-78
2023/10/25 02:44:55;;;;;;;1.90;1.80;;;;;;;10.69;100.00;95362.25;5009474;28;105422;-78
2023/10/25 02:47:22;;;;;;;3.03;2.70;;;;;;;10.76;100.00;95368.03;5026662;28;102015;-78
2023/10/25 02:49:50;;;;;;;1.77;1.67;;;;;;;10.75;100.00;95367.22;5026529;28;105010;-78
2023/10/25 02:52:17;;;;;;;2.30;1.80;;;;;;;10.73;100.00;95360.59;5009170;28;104998;-77
2023/10/25 02:54:44;;;;;;;4.03;3.70;;;;;;;10.80;100.00;95353.13;5009163;28;102603;-77
2023/10/25 02:57:11;;;;;;;2.47;2.27;;;;;;;10.84;100.00;95356.84;5012393;28;104888;-77
2023/10/25 02:59:38;;;;;;;3.00;2.67;;;;;;;10.83;100.00;95363.19;5026326;28;102004;-77
2023/10/25 03:02:05;;;;;;;1.47;1.47;;;;;;;10.80;100.00;95361.88;5009760;28;104122;-76
2023/10/25 03:04:32;;;;;;;1.70;1.60;;;;;;;10.79;100.00;95362.19;5025807;28;105186;-76
2023/10/25 03:07:01;;;;;;;2.40;2.13;;;;;;;10.79;100.00;95351.56;5009508;28;101975;-76
2023/10/25 03:09:28;;;;;;;2.10;2.00;;;;;;;10.83;100.00;95349.91;5009544;28;105887;-76
2023/10/25 03:11:55;;;;;;;3.53;2.40;;;;;;;10.89;100.00;95356.78;5008553;28;105092;-76
2023/10/25 03:14:21;;;;;;;2.93;2.67;;;;;;;10.87;100.00;95359.75;5009426;28;101979;-76
2023/10/25 03:16:49;;;;;;;1.93;1.83;;;;;;;10.74;100.00;95363.00;5009350;28;104073;-76
2023/10/25 03:19:16;;;;;;;2.87;2.67;;;;;;;10.75;100.00;95355.81;5012124;28;105615;-76
2023/10/25 03:21:43;;;;;;;2.60;2.20;;;;;;;10.77;100.00;95356.34;5009460;28;105135;-76
2023/10/25 03:24:11;;;;;;;2.47;2.30;;;;;;;10.78;100.00;95356.06;5008736;28;105515;-76
2023/10/25 03:26:38;;;;;;;3.00;2.80;;;;;;;10.82;100.00;95343.00;5009069;28;102136;-79
2023/10/25 03:29:05;;;;;;;4.27;2.40;;;;;;;10.83;100.00;95344.59;5009161;28;105182;-80
2023/10/25 03:31:32;;;;;;;2.30;2.10;;;;;;;10.77;100.00;95345.69;5025411;28;105329;-80
2023/10/25 03:33:59;;;;;;;2.10;2.00;;;;;;;10.72;100.00;95351.03;5009117;28;101873;-80
2023/10/25 03:36:26;;;;;;;2.70;2.10;;;;;;;10.69;100.00;95360.38;5009147;28;105046;-80
2023/10/25 03:38:53;;;;;;;2.53;2.43;;;;;;;10.63;100.00;95350.06;5009797;28;102801;-80
2023/10/25 03:41:21;;;;;;;3.23;3.03;;;;;;;10.67;100.00;95351.88;5029173;28;101778;-80
2023/10/25 03:43:48;;;;;;;3.43;3.13;;;;;;;10.64;100.00;95344.44;5008498;28;105642;-80
2023/10/25 03:46:17;;;;;;;3.50;3.30;;;;;;;10.65;100.00;95346.06;5009112;28;102077;-80
2023/10/25 03:48:45;;;;;;;2.80;2.60;;;;;;;10.62;100.00;95349.25;5025663;28;105130;-80
2023/10/25 03:51:12;;;;;;;3.47;3.20;;;;;;;10.59;100.00;95354.34;5008212;28;105050;-76
2023/10/25 03:53:40;;;;;;;3.40;3.10;;;;;;;10.60;100.00;95356.72;5025557;28;101951;-76
2023/10/25 03:56:07;;;;;;;3.77;3.00;;;;;;;10.59;100.00;95359.66;5024915;27;105728;-76
2023/10/25 03:58:36;;;;;;;3.40;3.10;;;;;;;10.55;100.00;95356.75;5025193;28;105436;-77
2023/10/25 04:01:04;;;;;;;3.20;2.90;;;;;;;10.56;100.00;95357.53;5012143;28;101966;-76
2023/10/25 04:03:31;;;;;;;3.60;3.30;;;;;;;10.55;100.00;95356.75;5024875;28;105665;-76
2023/10/25 04:05:59;;;;;;;3.67;3.47;;;;;;;10.59;100.00;95354.34;5025484;28;101903;-75
2023/10/25 04:08:26;;;;;;;3.10;2.90;;;;;;;10.52;100.00;95349.31;5025170;28;103973;-76
2023/10/25 04:10:53;;;;;;;3.63;2.80;;;;;;;10.47;100.00;95351.22;5007263;28;105697;-78
2023/10/25 04:13:22;;;;;;;2.90;2.60;;;;;;;10.42;100.00;95340.59;5008674;28;101912;-78
2023/10/25 04:15:57;;;;;;;3.70;2.93;;;;;;;10.42;100.00;95338.72;5008608;28;104106;-78
2023/10/25 04:18:24;;;;;;;3.20;3.00;;;;;;;10.36;100.00;95341.72;5024719;28;103819;-78
2023/10/25 04:20:51;;;;;;;2.93;2.73;;;;;;;10.30;100.00;95345.47;5008561;28;101969;-77
2023/10/25 04:23:19;;;;;;;4.23;3.93;;;;;;;10.22;100.00;95333.53;5028074;28;105051;-77
2023/10/25 04:25:45;;;;;;;7.77;6.23;;;;;;;10.19;100.00;95325.31;5008669;28;101937;-77
2023/10/25 04:28:14;;;;;;;8.30;6.90;;;;;;;10.11;100.00;95333.84;5008482;28;105048;-77
2023/10/25 04:30:41;;;;;;;4.57;4.17;;;;;;;10.04;100.00;95336.00;5024647;28;105008;-79
2023/10/25 04:33:09;;;;;;;3.30;3.00;;;;;;;10.07;100.00;95338.09;5008271;28;102235;-77
2023/10/25 04:35:36;;;;;;;3.60;3.30;;;;;;;10.07;100.00;95341.56;5008392;28;105765;-77
2023/10/25 04:38:03;;;;;;;4.73;3.40;;;;;;;10.12;100.00;95338.09;5024435;28;104174;-78
2023/10/25 04:40:32;;;;;;;3.07;2.87;;;;;;;10.00;100.00;95343.69;5008207;28;102063;-79
2023/10/25 04:42:59;;;;;;;10.57;9.57;;;;;;;10.07;100.00;95340.75;5008215;28;105844;-79
2023/10/25 04:45:26;;;;;;;7.27;6.67;;;;;;;10.03;100.00;95337.06;5011144;28;105404;-78
2023/10/25 04:47:53;;;;;;;10.20;9.30;;;;;;;10.00;100.00;95334.94;5008399;28;105172;-77
2023/10/25 04:50:22;;;;;;;8.00;7.33;;;;;;;10.00;100.00;95329.63;5008286;28;105817;-80
2023/10/25 04:52:49;;;;;;;6.77;6.17;;;;;;;10.00;100.00;95329.63;5009006;28;102003;-79
2023/10/25 04:55:15;;;;;;;4.60;4.30;;;;;;;9.97;100.00;95324.88;5008028;28;105104;-78
2023/10/25 04:57:42;;;;;;;5.30;4.90;;;;;;;9.97;100.00;95325.63;5008312;28;105062;-78
2023/10/25 05:00:10;;;;;;;4.50;4.10;;;;;;;10.01;100.00;95315.25;5009116;28;101978;-78
2023/10/25 05:02:38;;;;;;;4.63;4.27;;;;;;;9.98;100.00;95316.59;5025593;28;105742;-78
2023/10/25 05:05:06;;;;;;;4.60;4.20;;;;;;;9.94;100.00;95320.88;5008025;28;105863;-78
2023/10/25 05:07:36;;;;;;;4.47;4.07;;;;;;;9.87;100.00;95317.72;5012264;28;101703;-79
2023/10/25 05:10:05;;;;;;;5.03;4.63;;;;;;;9.90;100.00;95316.38;5009469;28;102944;-80
2023/10/25 05:12:38;;;;;;;4.60;4.30;;;;;;;9.88;100.00;95313.19;5010074;28;102037;-79
2023/10/25 05:15:06;;;;;;;5.80;5.30;;;;;;;9.89;100.00;95310.28;5008649;28;105531;-79
2023/10/25 05:17:34;;;;;;;5.27;4.77;;;;;;;9.84;100.00;95298.88;5009492;28;103108;-80
2023/10/25 05:20:01;;;;;;;5.40;4.70;;;;;;;9.78;100.00;95299.97;5008771;28;101908;-80
2023/10/25 05:22:31;;;;;;;5.50;5.03;;;;;;;9.78;100.00;95298.13;5008549;28;105570;-80
2023/10/25 05:25:00;;;;;;;4.60;4.30;;;;;;;9.80;100.00;95288.00;5012257;28;103065;-80
2023/10/25 05:27:27;;;;;;;4.90;4.50;;;;;;;9.77;100.00;95295.72;5011896;28;102039;-80
2023/10/25 05:29:55;;;;;;;4.40;4.00;;;;;;;9.78;100.00;95297.31;5031471;28;105236;-80
2023/10/25 05:32:24;;;;;;;3.57;3.37;;;;;;;9.67;100.00;95293.09;5011721;28;102061;-80
2023/10/25 05:34:51;;;;;;;4.17;3.87;;;;;;;9.65;100.00;95300.56;5011721;28;105408;-83
2023/10/25 05:37:18;;;;;;;4.37;4.07;;;;;;;9.62;100.00;95295.78;5011304;28;105034;-82
2023/10/25 05:39:46;;;;;;;4.43;4.13;;;;;;;9.61;100.00;95294.19;5028458;28;101871;-82
2023/10/25 05:42:19;;;;;;;4.50;4.10;;;;;;;9.61;100.00;95295.00;5011641;28;106175;-82
2023/10/25 05:44:46;;;;;;;4.57;4.17;;;;;;;9.60;100.00;95288.06;5011225;28;105680;-82
2023/10/25 05:47:14;;;;;;;4.30;4.00;;;;;;;9.57;100.00;95285.16;5011783;28;102071;-82
2023/10/25 05:49:42;;;;;;;6.03;5.43;;;;;;;9.59;100.00;95283.06;5011474;28;105210;-80
2023/10/25 05:52:10;;;;;;;5.37;4.87;;;;;;;9.56;100.00;95276.44;5030996;28;104008;-80
2023/10/25 05:54:38;;;;;;;5.67;5.17;;;;;;;9.53;100.00;95278.81;5011051;28;105408;-84
2023/10/25 05:57:06;;;;;;;5.27;4.87;;;;;;;9.50;100.00;95282.00;5010728;28;105539;-81
2023/10/25 05:59:36;;;;;;;6.07;5.47;;;;;;;9.39;100.00;95278.56;5012996;28;101807;-81
2023/10/25 06:02:09;;;;;;;5.27;4.87;;;;;;;9.40;100.00;95277.53;5028170;28;105165;-81
2023/10/25 06:04:37;;;;;;;6.47;5.47;;;;;;;9.31;100.00;95273.03;5012256;28;102789;-81
2023/10/25 06:07:05;;;;;;;5.60;5.10;;;;;;;9.19;100.00;95280.50;5011337;28;101940;-90
2023/10/25 06:09:39;;;;;;;5.40;4.87;;;;;;;9.20;100.00;95284.72;5010870;28;105344;-83
2023/10/25 06:12:36;;;;;;;6.17;5.67;;;;;;;9.35;100.00;95280.19;5029343;27;105222;-83
2023/10/25 06:15:11;;;;;;;6.33;5.60;;;;;;;9.41;100.00;95283.63;4953925;28;104950;-78
2023/10/25 06:17:40;;;;;;;6.10;5.60;;;;;;;9.43;100.00;95273.56;4970015;28;105253;-78
2023/10/25 06:20:19;;;;;;;6.27;5.77;;;;;;;9.48;100.00;95273.53;4953821;28;102216;-78
2023/10/25 06:22:56;;;;;;;6.10;5.60;;;;;;;9.41;100.00;95273.81;4950659;28;102627;-78
2023/10/25 06:25:24;;;;;;;5.77;5.27;;;;;;;9.53;100.00;95282.25;4933600;28;104360;-78
2023/10/25 06:27:57;;;;;;;5.60;5.20;;;;;;;9.66;100.00;95272.94;4947869;28;102088;-78
2023/10/25 06:30:26;;;;;;;6.20;5.60;;;;;;;9.71;100.00;95259.66;4953661;28;104994;-79
2023/10/25 06:32:58;;;;;;;5.53;4.63;;;;;;;9.76;100.00;95252.44;4969148;28;102897;-78
2023/10/25 06:35:25;;;;;;;9.30;5.30;;;;;;;9.70;100.00;95252.75;4973515;28;101934;-80
2023/10/25 06:37:53;;;;;;;6.00;5.40;;;;;;;9.73;100.00;95246.88;4953197;28;105303;-81
2023/10/25 06:40:21;;;;;;;5.67;5.07;;;;;;;9.80;100.00;95244.72;4970351;28;103343;-81
2023/10/25 06:43:04;;;;;;;6.60;6.00;;;;;;;9.87;100.00;95255.88;4967259;28;105248;-82
2023/10/25 06:45:35;;;;;;;6.77;6.17;;;;;;;9.96;100.00;95255.00;4910388;28;103896;-78
2023/10/25 06:48:12;;;;;;;6.80;6.13;;;;;;;10.11;100.00;95262.13;4911447;28;102204;-80
2023/10/25 06:50:40;;;;;;;6.73;6.07;;;;;;;10.14;100.00;95261.59;4911595;28;102557;-80
2023/10/25 06:53:10;;;;;;;6.90;6.30;;;;;;;10.19;100.00;95256.25;4946197;28;106036;-81
2023/10/25 06:55:40;;;;;;;6.77;6.17;;;;;;;10.20;100.00;95253.31;4952939;28;101958;-82
2023/10/25 06:58:15;;;;;;;6.83;6.23;;;;;;;10.32;100.00;95260.94;4956233;28;105551;-81
2023/10/25 07:00:44;;;;;;;7.20;6.50;;;;;;;10.37;100.00;95258.25;4945835;28;102021;-81
2023/10/25 07:03:15;;;;;;;7.57;6.90;;;;;;;10.47;100.00;95261.63;4951264;28;104844;-81
2023/10/25 07:05:46;;;;;;;6.90;6.30;;;;;;;10.63;100.00;95252.47;4949932;28;103094;-81
2023/10/25 07:08:22;;;;;;;6.67;6.17;;;;;;;10.71;100.00;95254.56;4949885;28;102114;-81
2023/10/25 07:10:49;;;;;;;6.23;5.73;;;;;;;10.83;100.00;95254.97;4937655;28;105415;-80
2023/10/25 07:13:26;;;;;;;6.73;6.20;;;;;;;10.89;100.00;95253.06;4969159;28;102950;-80
2023/10/25 07:15:55;;;;;;;6.43;5.83;;;;;;;11.02;100.00;95261.19;4949684;28;101960;-81
2023/10/25 07:18:22;;;;;;;7.90;6.30;;;;;;;11.17;100.00;95258.38;4933664;28;105308;-80
2023/10/25 07:20:50;;;;;;;7.27;6.63;;;;;;;11.35;100.00;95252.34;4939740;28;105697;-80
2023/10/25 07:23:17;;;;;;;6.87;6.27;;;;;;;11.47;100.00;95249.28;4993254;28;104992;-80
2023/10/25 07:25:44;;;;;;;6.43;5.93;;;;;;;11.53;100.00;95234.84;5009597;28;105011;-80
2023/10/25 07:28:11;;;;;;;5.77;5.27;;;;;;;11.55;100.00;95230.06;5009553;28;101928;-80
2023/10/25 07:30:38;;;;;;;4.13;3.87;;;;;;;11.52;100.00;95219.97;5010692;28;105135;-80
2023/10/25 07:33:07;;;;;;;4.47;4.17;;;;;;;11.64;100.00;95220.38;5028099;28;106060;-81
2023/10/25 07:35:34;;;;;;;3.40;3.20;;;;;;;11.76;100.00;95218.09;5028976;28;101896;-80
2023/10/25 07:38:01;;;;;;;3.60;3.40;;;;;;;11.95;100.00;95218.91;5028986;28;105272;-80
2023/10/25 07:40:28;;;;;;;3.33;3.13;;;;;;;12.08;100.00;95218.19;5028396;28;104424;-80
2023/10/25 07:42:55;;;;;;;2.93;2.73;;;;;;;12.05;100.00;95210.78;5012173;28;102033;-80
2023/10/25 07:45:22;;;;;;;3.00;2.70;;;;;;;12.10;100.00;95206.16;5007464;28;105798;-80
2023/10/25 07:47:50;;;;;;;2.70;2.50;;;;;;;12.23;100.00;95208.13;5008217;28;101895;-80
2023/10/25 07:50:20;;;;;;;2.40;2.20;;;;;;;12.31;100.00;95204.03;5008814;28;105462;-80
2023/10/25 07:52:48;;;;;;;2.83;2.67;;;;;;;12.50;100.00;95207.44;5026650;28;105078;-81
2023/10/25 07:55:15;;;;;;;2.37;2.20;;;;;;;12.61;100.00;95200.88;5028432;28;102045;-81
2023/10/25 07:57:42;;;;;;;1.90;1.80;;;;;;;12.58;100.00;95196.91;5028505;28;105436;-81
2023/10/25 08:00:10;;;;;;;1.73;1.63;;;;;;;12.74;100.00;95210.78;5027882;28;104147;-81
2023/10/25 08:02:40;;;;;;;2.00;1.90;;;;;;;12.94;100.00;95205.94;5031820;28;101913;-81
2023/10/25 08:05:07;;;;;;;1.50;1.40;;;;;;;13.03;100.00;95200.72;5027955;28;104251;-80
2023/10/25 08:07:37;;;;;;;1.20;1.20;;;;;;;13.09;100.00;95196.88;5030001;27;101867;-80
2023/10/25 08:10:06;;;;;;;1.57;1.47;;;;;;;13.18;100.00;95195.91;5027975;28;105048;-80
2023/10/25 08:12:36;;;;;;;1.20;1.20;;;;;;;13.27;100.00;95186.13;5027320;28;105397;-80
2023/10/25 08:15:03;;;;;;;1.53;1.43;;;;;;;13.27;100.00;95175.47;5028385;28;101977;-80
2023/10/25 08:17:30;;;;;;;1.60;1.50;;;;;;;13.32;100.00;95175.38;5029992;28;102890;-80
2023/10/25 08:19:57;;;;;;;2.00;1.90;;;;;;;13.31;100.00;95173.75;5027704;28;104373;-81
2023/10/25 08:22:24;;;;;;;2.67;2.10;;;;;;;13.27;100.00;95182.66;5028018;28;102227;-81
2023/10/25 08:24:52;;;;;;;2.53;2.33;;;;;;;13.61;100.00;95173.16;5031381;28;105531;-81
2023/10/25 08:27:20;;;;;;;2.50;2.30;;;;;;;13.60;100.00;95176.13;5028410;28;102055;-81
2023/10/25 08:29:47;;;;;;;2.03;1.93;;;;;;;13.75;100.00;95170.47;5029485;28;101785;-81
2023/10/25 08:32:13;;;;;;;2.00;1.90;;;;;;;13.95;100.00;95176.19;5027048;28;105376;-81
2023/10/25 08:34:45;;;;;;;1.77;1.67;;;;;;;13.99;100.00;95173.69;5028233;28;101887;-81
2023/10/25 08:37:12;;;;;;;1.77;1.67;;;;;;;13.97;100.00;95175.88;5029954;28;102919;-81
2023/10/25 08:39:39;;;;;;;2.20;1.53;;;;;;;14.09;100.00;95181.50;5027542;28;105361;-81
2023/10/25 08:42:11;;;;;;;2.87;1.87;;;;;;;14.22;100.00;95188.75;5027776;28;101988;-81
2023/10/25 08:44:40;;;;;;;1.27;1.20;;;;;;;14.27;100.00;95177.91;5028027;28;105210;-81
2023/10/25 08:47:08;;;;;;;1.37;1.27;;;;;;;14.30;100.00;95172.75;5030769;28;105821;-80
2023/10/25 08:49:37;;;;;;;1.63;1.37;;;;;;;14.52;100.00;95170.09;5028105;28;105164;-81
2023/10/25 08:52:04;;;;;;;1.70;1.27;;;;;;;14.53;100.00;95168.19;5026923;28;105986;-81
2023/10/25 08:54:31;;;;;;;1.43;1.27;;;;;;;14.63;100.00;95163.41;5027943;28;102017;-80
2023/10/25 08:56:59;;;;;;;1.20;1.20;;;;;;;14.98;100.00;95165.19;5027984;27;104852;-80
2023/10/25 08:59:27;;;;;;;1.30;1.30;;;;;;;14.90;100.00;95162.47;5030833;28;104169;-80
2023/10/25 09:01:55;;;;;;;1.63;1.30;;;;;;;15.00;100.00;95159.53;5030951;28;101925;-80
2023/10/25 09:04:22;;;;;;;1.43;1.33;;;;;;;15.10;100.00;95157.38;5031493;28;104911;-80
2023/10/25 09:06:49;;;;;;;1.13;1.13;;;;;;;15.17;100.00;95159.59;5030527;28;105180;-80
2023/10/25 09:09:16;;;;;;;1.00;1.00;;;;;;;15.18;100.00;95148.59;5034762;28;101999;-80
2023/10/25 09:11:44;;;;;;;1.90;1.37;;;;;;;15.26;100.00;95142.47;5029957;28;105635;-80
2023/10/25 09:14:13;;;;;;;1.40;1.30;;;;;;;15.16;100.00;95133.94;5030980;28;102127;-80
2023/10/25 09:16:43;;;;;;;1.47;1.20;;;;;;;15.30;100.00;95132.72;5031137;28;103738;-80
2023/10/25 09:19:10;;;;;;;1.00;1.00;;;;;;;15.39;100.00;95132.78;5030392;28;105478;-78
2023/10/25 09:21:37;;;;;;;1.20;1.20;;;;;;;15.60;100.00;95123.84;5030866;28;101995;-78
2023/10/25 09:24:07;;;;;;;1.40;1.30;;;;;;;15.77;100.00;95123.13;5030930;28;104907;-80
2023/10/25 09:26:35;;;;;;;1.57;1.00;;;;;;;15.60;100.00;95131.13;5030421;28;105411;-78
2023/10/25 09:29:03;;;;;;;1.07;1.00;;;;;;;15.60;100.00;95121.16;5031005;28;102062;-78
2023/10/25 09:31:32;;;;;;;0.90;0.90;;;;;;;15.78;100.00;95122.00;5033475;28;105604;-79
2023/10/25 09:34:03;;;;;;;1.00;1.00;;;;;;;16.02;100.00;95106.28;5030772;28;101993;-79
2023/10/25 09:36:30;;;;;;;1.00;1.00;;;;;;;15.76;100.00;95098.19;5030937;28;105172;-79
2023/10/25 09:38:57;;;;;;;1.53;1.43;;;;;;;15.90;100.00;95098.03;5027983;27;105607;-79
2023/10/25 09:41:26;;;;;;;1.20;1.10;;;;;;;16.02;100.00;95093.66;5026561;28;102338;-82
2023/10/25 09:43:58;;;;;;;1.40;1.30;;;;;;;16.32;100.00;95094.59;5021174;28;103805;-81
2023/10/25 09:46:30;;;;;;;1.43;1.33;;;;;;;16.33;100.00;95093.47;5011068;28;105102;-81
2023/10/25 09:49:04;;;;;;;1.50;1.40;;;;;;;16.08;100.00;95088.94;5011850;28;101827;-81
2023/10/25 09:51:46;;;;;;;1.43;1.33;;;;;;;16.07;100.00;95085.44;5016075;28;103728;-81
2023/10/25 09:54:14;;;;;;;1.73;1.50;;;;;;;16.40;100.00;95083.09;5033763;28;105546;-80
2023/10/25 09:56:43;;;;;;;1.47;1.37;;;;;;;16.62;100.00;95077.53;5030997;27;105392;-80
2023/10/25 09:59:12;;;;;;;1.00;1.00;;;;;;;16.57;100.00;95064.28;5030314;28;105048;-80
2023/10/25 10:01:40;;;;;;;1.33;1.23;;;;;;;16.63;100.00;95063.00;5031737;28;101877;-80
2023/10/25 10:04:15;;;;;;;2.77;1.30;;;;;;;16.82;100.00;95064.22;5031759;28;105305;-80
2023/10/25 10:06:59;;;;;;;1.10;1.10;;;;;;;16.93;100.00;95060.06;5023302;28;105691;-80
2023/10/25 10:09:33;;;;;;;1.47;1.30;;;;;;;16.95;100.00;95047.09;5030631;27;102009;-80
2023/10/25 10:12:05;;;;;;;1.50;1.40;;;;;;;17.10;100.00;95043.06;5030409;28;105075;-80
2023/10/25 10:14:33;;;;;;;1.60;1.50;;;;;;;17.18;100.00;95032.31;5033168;28;105217;-80
2023/10/25 10:17:05;;;;;;;1.30;1.27;;;;;;;17.03;100.00;95027.47;5038000;27;105513;-80
2023/10/25 10:19:34;;;;;;;1.90;1.00;;;;;;;17.08;100.00;95021.94;5030999;28;105818;-80
2023/10/25 10:22:06;;;;;;;1.20;1.10;;;;;;;17.23;100.00;95026.72;5029877;28;101970;-80
2023/10/25 10:24:44;;;;;;;0.90;0.90;;;;;;;17.40;100.00;95026.69;5011048;28;105079;-80
2023/10/25 10:27:11;;;;;;;0.60;0.60;;;;;;;17.42;100.00;95015.59;5023899;28;105167;-79
2023/10/25 10:29:43;;;;;;;1.27;0.90;;;;;;;17.43;100.00;95017.97;5031254;28;102145;-79
2023/10/25 10:32:11;;;;;;;0.70;0.70;;;;;;;17.46;100.00;95011.16;5021201;28;105166;-80
2023/10/25 10:34:42;;;;;;;1.20;1.10;;;;;;;17.68;100.00;95010.84;5015062;28;103900;-79
2023/10/25 10:37:10;;;;;;;0.90;0.90;;;;;;;17.90;100.00;95011.31;5021072;28;101890;-79
2023/10/25 10:39:39;;;;;;;1.03;0.97;;;;;;;18.25;100.00;95006.41;5013981;28;105493;-78
2023/10/25 10:42:06;;;;;;;1.00;1.00;;;;;;;18.48;100.00;95013.00;5030414;28;102007;-76
2023/10/25 10:44:38;;;;;;;0.60;0.60;;;;;;;18.24;100.00;94997.53;5030741;28;105417;-76
2023/10/25 10:47:09;;;;;;;1.20;1.20;;;;;;;18.02;100.00;94997.09;5025756;28;105218;-76
2023/10/25 10:49:41;;;;;;;2.40;1.40;;;;;;;18.17;100.00;94996.50;5030974;28;102043;-76
2023/10/25 10:52:08;;;;;;;5.13;3.57;;;;;;;18.52;100.00;94992.38;5026933;28;104423;-76
2023/10/25 10:54:35;;;;;;;4.23;3.83;;;;;;;17.90;100.00;94986.28;5011590;28;105882;-76
2023/10/25 10:57:02;;;;;;;3.60;3.30;;;;;;;17.39;100.00;94984.78;5022869;28;102494;-76
2023/10/25 10:59:29;;;;;;;3.60;3.30;;;;;;;17.20;100.00;94980.94;5050202;27;105140;-78
2023/10/25 11:01:57;;;;;;;4.23;3.83;;;;;;;17.30;100.00;94975.19;5030649;28;102232;-78
2023/10/25 11:04:24;;;;;;;4.50;3.90;;;;;;;17.63;100.00;94978.75;5030292;28;105305;-76
2023/10/25 11:06:53;;;;;;;9.83;4.30;;;;;;;17.83;100.00;94976.06;5022208;28;105109;-77
2023/10/25 11:09:21;;;;;;;4.27;3.80;;;;;;;18.07;100.00;94968.09;5014860;28;102002;-75
2023/10/25 11:11:48;;;;;;;4.20;3.80;;;;;;;18.00;100.00;94965.16;5023220;28;105038;-74
2023/10/25 11:14:19;;;;;;;4.23;3.83;;;;;;;18.10;100.00;94972.03;5028659;28;105863;-76
2023/10/25 11:16:46;;;;;;;3.77;3.43;;;;;;;17.79;100.00;94964.41;5030012;28;101866;-76
2023/10/25 11:19:15;;;;;;;3.53;3.17;;;;;;;17.75;100.00;94958.09;5030398;28;105390;-75
2023/10/25 11:21:45;;;;;;;4.00;3.60;;;;;;;17.50;100.00;94951.03;5033002;27;105294;-76
2023/10/25 11:24:14;;;;;;;4.17;3.77;;;;;;;17.68;100.00;94951.69;5029305;28;103698;-76